sensor_id;sensor_type;location;lat;lon;timestamp;pressure;altitude;pressure_sealevel;temperature;humidity
47738;BME280;33502;47.182;27.506;2023-07-31T00:01:56;99625.88;;;17.67;100.00
47738;BME280;33502;47.182;27.506;2023-07-31T00:04:22;99639.38;;;17.65;100.00
47738;BME280;33502;47.182;27.506;2023-07-31T00:06:47;99649.13;;;17.66;100.00
47738;BME280;33502;47.182;27.506;2023-07-31T00:09:13;99641.81;;;17.68;100.00
47738;BME280;33502;47.182;27.506;2023-07-31T00:11:39;99644.25;;;17.71;100.00
47738;BME280;33502;47.182;27.506;2023-07-31T00:14:04;99644.25;;;17.71;100.00
47738;BME280;33502;47.182;27.506;2023-07-31T00:16:30;99640.81;;;17.69;100.00
47738;BME280;33502;47.182;27.506;2023-07-31T00:18:56;99634.63;;;17.69;100.00
47738;BME280;33502;47.182;27.506;2023-07-31T00:21:21;99639.03;;;17.70;100.00
47738;BME280;33502;47.182;27.506;2023-07-31T00:23:47;99638.75;;;17.73;100.00
47738;BME280;33502;47.182;27.506;2023-07-31T00:26:12;99636.94;;;17.73;100.00
47738;BME280;33502;47.182;27.506;2023-07-31T00:28:38;99630.88;;;17.71;100.00
47738;BME280;33502;47.182;27.506;2023-07-31T00:31:03;99631.69;;;17.72;100.00
47738;BME280;33502;47.182;27.506;2023-07-31T00:33:30;99621.00;;;17.72;100.00
47738;BME280;33502;47.182;27.506;2023-07-31T00:35:56;99617.19;;;17.74;100.00
47738;BME280;33502;47.182;27.506;2023-07-31T00:38:22;99618.91;;;17.75;100.00
47738;BME280;33502;47.182;27.506;2023-07-31T00:40:47;99610.16;;;17.73;100.00
47738;BME280;33502;47.182;27.506;2023-07-31T00:43:13;99599.44;;;17.73;100.00
47738;BME280;33502;47.182;27.506;2023-07-31T00:45:40;99603.81;;;17.74;100.00
47738;BME280;33502;47.182;27.506;2023-07-31T00:48:06;99601.41;;;17.71;100.00
47738;BME280;33502;47.182;27.506;2023-07-31T00:50:31;99606.75;;;17.71;100.00
47738;BME280;33502;47.182;27.506;2023-07-31T00:52:58;99607.72;;;17.70;100.00
47738;BME280;33502;47.182;27.506;2023-07-31T00:55:24;99598.72;;;17.71;100.00
47738;BME280;33502;47.182;27.506;2023-07-31T00:57:50;99610.41;;;17.70;100.00
47738;BME280;33502;47.182;27.506;2023-07-31T01:00:17;99614.91;;;17.70;100.00
47738;BME280;33502;47.182;27.506;2023-07-31T01:02:43;99620.28;;;17.70;100.00
47738;BME280;33502;47.182;27.506;2023-07-31T01:05:09;99619.69;;;17.66;100.00
47738;BME280;33502;47.182;27.506;2023-07-31T01:12:31;99609.81;;;17.67;100.00
47738;BME280;33502;47.182;27.506;2023-07-31T01:17:26;99604.59;;;17.65;100.00
47738;BME280;33502;47.182;27.506;2023-07-31T01:19:52;99609.81;;;17.67;100.00
47738;BME280;33502;47.182;27.506;2023-07-31T01:25:11;99609.94;;;17.65;100.00
47738;BME280;33502;47.182;27.506;2023-07-31T01:27:44;99609.22;;;17.63;100.00
47738;BME280;33502;47.182;27.506;2023-07-31T01:30:16;99603.03;;;17.63;100.00
47738;BME280;33502;47.182;27.506;2023-07-31T01:32:46;99605.81;;;17.61;100.00
47738;BME280;33502;47.182;27.506;2023-07-31T01:35:13;99600.75;;;17.58;100.00
47738;BME280;33502;47.182;27.506;2023-07-31T01:37:38;99606.94;;;17.58;100.00
47738;BME280;33502;47.182;27.506;2023-07-31T01:40:04;99605.22;;;17.57;100.00
47738;BME280;33502;47.182;27.506;2023-07-31T01:42:30;99609.84;;;17.55;100.00
47738;BME280;33502;47.182;27.506;2023-07-31T01:44:56;99605.22;;;17.57;100.00
47738;BME280;33502;47.182;27.506;2023-07-31T01:47:22;99606.81;;;17.60;100.00
47738;BME280;33502;47.182;27.506;2023-07-31T01:49:49;99613.00;;;17.60;100.00
47738;BME280;33502;47.182;27.506;2023-07-31T01:52:15;99614.84;;;17.60;100.00
47738;BME280;33502;47.182;27.506;2023-07-31T01:54:41;99614.84;;;17.60;100.00
47738;BME280;33502;47.182;27.506;2023-07-31T01:57:07;99617.53;;;17.60;100.00
47738;BME280;33502;47.182;27.506;2023-07-31T01:59:33;99622.00;;;17.59;100.00
47738;BME280;33502;47.182;27.506;2023-07-31T02:01:58;99623.97;;;17.57;100.00
47738;BME280;33502;47.182;27.506;2023-07-31T02:04:24;99629.19;;;17.59;100.00
47738;BME280;33502;47.182;27.506;2023-07-31T02:06:49;99624.69;;;17.59;100.00
47738;BME280;33502;47.182;27.506;2023-07-31T02:09:15;99625.28;;;17.63;100.00
47738;BME280;33502;47.182;27.506;2023-07-31T02:11:41;99621.63;;;17.64;100.00
47738;BME280;33502;47.182;27.506;2023-07-31T02:14:06;99624.19;;;17.66;100.00
47738;BME280;33502;47.182;27.506;2023-07-31T02:16:32;99624.31;;;17.64;100.00
47738;BME280;33502;47.182;27.506;2023-07-31T02:19:00;99625.03;;;17.66;100.00
47738;BME280;33502;47.182;27.506;2023-07-31T02:21:25;99629.41;;;17.67;100.00
47738;BME280;33502;47.182;27.506;2023-07-31T02:23:51;99622.34;;;17.66;100.00
47738;BME280;33502;47.182;27.506;2023-07-31T02:26:18;99615.28;;;17.65;100.00
47738;BME280;33502;47.182;27.506;2023-07-31T02:28:44;99619.81;;;17.65;100.00
47738;BME280;33502;47.182;27.506;2023-07-31T02:31:11;99629.66;;;17.64;100.00
47738;BME280;33502;47.182;27.506;2023-07-31T02:33:36;99628.66;;;17.65;100.00
47738;BME280;33502;47.182;27.506;2023-07-31T02:36:02;99632.94;;;17.68;100.00
47738;BME280;33502;47.182;27.506;2023-07-31T02:38:27;99631.94;;;17.69;100.00
47738;BME280;33502;47.182;27.506;2023-07-31T02:40:53;99628.19;;;17.71;100.00
47738;BME280;33502;47.182;27.506;2023-07-31T02:43:19;99636.06;;;17.73;100.00
47738;BME280;33502;47.182;27.506;2023-07-31T02:45:45;99643.13;;;17.74;100.00
47738;BME280;33502;47.182;27.506;2023-07-31T02:48:11;99638.63;;;17.74;100.00
47738;BME280;33502;47.182;27.506;2023-07-31T02:50:37;99639.47;;;17.75;100.00
47738;BME280;33502;47.182;27.506;2023-07-31T02:53:02;99633.97;;;17.76;100.00
47738;BME280;33502;47.182;27.506;2023-07-31T02:55:28;99633.88;;;17.78;100.00
47738;BME280;33502;47.182;27.506;2023-07-31T02:57:54;99641.78;;;17.79;100.00
47738;BME280;33502;47.182;27.506;2023-07-31T03:00:20;99641.78;;;17.79;100.00
47738;BME280;33502;47.182;27.506;2023-07-31T03:02:45;99637.13;;;17.81;100.00
47738;BME280;33502;47.182;27.506;2023-07-31T03:05:11;99642.38;;;17.83;100.00
47738;BME280;33502;47.182;27.506;2023-07-31T03:07:37;99636.06;;;17.84;100.00
47738;BME280;33502;47.182;27.506;2023-07-31T03:10:02;99639.59;;;17.85;100.00
47738;BME280;33502;47.182;27.506;2023-07-31T03:12:28;99641.16;;;17.87;100.00
47738;BME280;33502;47.182;27.506;2023-07-31T03:14:54;99640.75;;;17.92;100.00
47738;BME280;33502;47.182;27.506;2023-07-31T03:17:19;99639.53;;;17.96;100.00
47738;BME280;33502;47.182;27.506;2023-07-31T03:19:45;99633.19;;;17.97;100.00
47738;BME280;33502;47.182;27.506;2023-07-31T03:22:11;99639.28;;;17.99;100.00
47738;BME280;33502;47.182;27.506;2023-07-31T03:24:37;99637.31;;;18.01;100.00
47738;BME280;33502;47.182;27.506;2023-07-31T03:27:02;99633.66;;;18.02;100.00
47738;BME280;33502;47.182;27.506;2023-07-31T03:29:28;99640.59;;;18.05;100.00
47738;BME280;33502;47.182;27.506;2023-07-31T03:31:54;99637.78;;;18.06;100.00
47738;BME280;33502;47.182;27.506;2023-07-31T03:34:20;99641.19;;;18.08;100.00
47738;BME280;33502;47.182;27.506;2023-07-31T03:36:45;99640.06;;;18.11;100.00
47738;BME280;33502;47.182;27.506;2023-07-31T03:39:11;99638.09;;;18.13;100.00
47738;BME280;33502;47.182;27.506;2023-07-31T03:41:36;99643.31;;;18.14;100.00
47738;BME280;33502;47.182;27.506;2023-07-31T03:44:02;99643.06;;;18.17;100.00
47738;BME280;33502;47.182;27.506;2023-07-31T03:46:27;99640.66;;;18.14;100.00
47738;BME280;33502;47.182;27.506;2023-07-31T03:48:53;99651.59;;;18.11;100.00
47738;BME280;33502;47.182;27.506;2023-07-31T03:51:19;99649.81;;;18.12;100.00
47738;BME280;33502;47.182;27.506;2023-07-31T03:53:44;99652.72;;;18.09;100.00
47738;BME280;33502;47.182;27.506;2023-07-31T03:56:10;99653.72;;;18.08;100.00
47738;BME280;33502;47.182;27.506;2023-07-31T03:58:36;99653.56;;;18.09;100.00
47738;BME280;33502;47.182;27.506;2023-07-31T04:01:02;99651.88;;;18.08;100.00
47738;BME280;33502;47.182;27.506;2023-07-31T04:03:28;99652.00;;;18.07;100.00
47738;BME280;33502;47.182;27.506;2023-07-31T04:05:54;99646.91;;;18.04;100.00
47738;BME280;33502;47.182;27.506;2023-07-31T04:08:21;99656.66;;;18.05;100.00
47738;BME280;33502;47.182;27.506;2023-07-31T04:10:47;99656.53;;;18.06;100.00
47738;BME280;33502;47.182;27.506;2023-07-31T04:13:12;99662.84;;;18.05;100.00
47738;BME280;33502;47.182;27.506;2023-07-31T04:15:38;99665.94;;;18.00;100.00
47738;BME280;33502;47.182;27.506;2023-07-31T04:18:04;99669.56;;;17.99;100.00
47738;BME280;33502;47.182;27.506;2023-07-31T04:20:30;99672.66;;;17.95;100.00
47738;BME280;33502;47.182;27.506;2023-07-31T04:22:55;99684.47;;;17.92;100.00
47738;BME280;33502;47.182;27.506;2023-07-31T04:25:21;99668.06;;;17.86;100.00
47738;BME280;33502;47.182;27.506;2023-07-31T04:27:47;99666.22;;;17.75;100.00
47738;BME280;33502;47.182;27.506;2023-07-31T04:30:12;99666.88;;;17.67;100.00
47738;BME280;33502;47.182;27.506;2023-07-31T04:32:38;99675.06;;;17.66;100.00
47738;BME280;33502;47.182;27.506;2023-07-31T04:35:04;99669.31;;;17.70;100.00
47738;BME280;33502;47.182;27.506;2023-07-31T04:37:29;99676.50;;;17.70;100.00
47738;BME280;33502;47.182;27.506;2023-07-31T04:39:55;99680.25;;;17.67;100.00
47738;BME280;33502;47.182;27.506;2023-07-31T04:42:20;99684.53;;;17.70;100.00
47738;BME280;33502;47.182;27.506;2023-07-31T04:44:46;99672.94;;;17.69;100.00
47738;BME280;33502;47.182;27.506;2023-07-31T04:47:12;99680.88;;;17.71;100.00
47738;BME280;33502;47.182;27.506;2023-07-31T04:49:37;99685.56;;;17.78;100.00
47738;BME280;33502;47.182;27.506;2023-07-31T04:52:03;99691.53;;;17.82;100.00
47738;BME280;33502;47.182;27.506;2023-07-31T04:54:29;99695.22;;;17.81;100.00
47738;BME280;33502;47.182;27.506;2023-07-31T04:56:54;99688.72;;;17.84;100.00
47738;BME280;33502;47.182;27.506;2023-07-31T04:59:20;99690.47;;;17.85;100.00
47738;BME280;33502;47.182;27.506;2023-07-31T05:01:45;99694.84;;;17.86;100.00
47738;BME280;33502;47.182;27.506;2023-07-31T05:04:14;99686.94;;;17.84;100.00
47738;BME280;33502;47.182;27.506;2023-07-31T05:06:40;99691.19;;;17.87;100.00
47738;BME280;33502;47.182;27.506;2023-07-31T05:09:06;99698.84;;;17.91;100.00
47738;BME280;33502;47.182;27.506;2023-07-31T05:11:31;99705.63;;;17.95;100.00
47738;BME280;33502;47.182;27.506;2023-07-31T05:13:57;99701.72;;;17.99;100.00
47738;BME280;33502;47.182;27.506;2023-07-31T05:16:22;99703.56;;;17.99;100.00
47738;BME280;33502;47.182;27.506;2023-07-31T05:18:48;99709.75;;;17.99;100.00
47738;BME280;33502;47.182;27.506;2023-07-31T05:21:14;99711.72;;;17.97;100.00
47738;BME280;33502;47.182;27.506;2023-07-31T05:23:39;99708.19;;;17.97;100.00
47738;BME280;33502;47.182;27.506;2023-07-31T05:26:05;99715.38;;;17.96;100.00
47738;BME280;33502;47.182;27.506;2023-07-31T05:28:31;99717.47;;;17.93;100.00
47738;BME280;33502;47.182;27.506;2023-07-31T05:31:03;99716.88;;;17.89;100.00
47738;BME280;33502;47.182;27.506;2023-07-31T05:33:29;99716.88;;;17.78;100.00
47738;BME280;33502;47.182;27.506;2023-07-31T05:35:54;99724.56;;;17.71;100.00
47738;BME280;33502;47.182;27.506;2023-07-31T05:38:20;99723.81;;;17.69;100.00
47738;BME280;33502;47.182;27.506;2023-07-31T05:40:46;99717.38;;;17.72;100.00
47738;BME280;33502;47.182;27.506;2023-07-31T05:43:12;99725.91;;;17.77;100.00
47738;BME280;33502;47.182;27.506;2023-07-31T05:45:38;99733.91;;;17.88;100.00
47738;BME280;33502;47.182;27.506;2023-07-31T05:48:04;99730.59;;;17.96;100.00
47738;BME280;33502;47.182;27.506;2023-07-31T05:50:29;99738.84;;;18.04;100.00
47738;BME280;33502;47.182;27.506;2023-07-31T05:52:55;99732.25;;;18.08;100.00
47738;BME280;33502;47.182;27.506;2023-07-31T05:55:21;99735.69;;;18.31;100.00
47738;BME280;33502;47.182;27.506;2023-07-31T05:57:46;99745.44;;;18.32;100.00
47738;BME280;33502;47.182;27.506;2023-07-31T06:00:12;99736.28;;;18.35;100.00
47738;BME280;33502;47.182;27.506;2023-07-31T06:02:38;99744.38;;;18.24;100.00
47738;BME280;33502;47.182;27.506;2023-07-31T06:05:04;99739.06;;;18.12;100.00
47738;BME280;33502;47.182;27.506;2023-07-31T06:07:31;99739.69;;;18.05;100.00
47738;BME280;33502;47.182;27.506;2023-07-31T06:09:57;99747.34;;;18.09;100.00
47738;BME280;33502;47.182;27.506;2023-07-31T06:12:28;99746.13;;;18.13;100.00
47738;BME280;33502;47.182;27.506;2023-07-31T06:14:54;99750.63;;;18.13;100.00
47738;BME280;33502;47.182;27.506;2023-07-31T06:17:19;99757.81;;;18.12;100.00
47738;BME280;33502;47.182;27.506;2023-07-31T06:19:45;99754.41;;;18.10;100.00
47738;BME280;33502;47.182;27.506;2023-07-31T06:22:10;99751.16;;;18.28;100.00
47738;BME280;33502;47.182;27.506;2023-07-31T06:24:36;99753.72;;;18.29;100.00
47738;BME280;33502;47.182;27.506;2023-07-31T06:27:02;99753.31;;;18.34;100.00
47738;BME280;33502;47.182;27.506;2023-07-31T06:29:29;99752.47;;;18.33;100.00
47738;BME280;33502;47.182;27.506;2023-07-31T06:31:55;99751.34;;;18.36;100.00
47738;BME280;33502;47.182;27.506;2023-07-31T06:34:20;99753.06;;;18.37;100.00
47738;BME280;33502;47.182;27.506;2023-07-31T06:36:46;99749.88;;;18.43;100.00
47738;BME280;33502;47.182;27.506;2023-07-31T06:39:11;99753.75;;;18.50;100.00
47738;BME280;33502;47.182;27.506;2023-07-31T06:41:37;99747.59;;;18.59;100.00
47738;BME280;33502;47.182;27.506;2023-07-31T06:44:05;99756.66;;;18.68;100.00
47738;BME280;33502;47.182;27.506;2023-07-31T06:46:31;99751.66;;;18.75;100.00
47738;BME280;33502;47.182;27.506;2023-07-31T06:48:56;99755.09;;;18.66;100.00
47738;BME280;33502;47.182;27.506;2023-07-31T06:51:22;99760.34;;;18.67;100.00
47738;BME280;33502;47.182;27.506;2023-07-31T06:53:48;99750.59;;;18.66;100.00
47738;BME280;33502;47.182;27.506;2023-07-31T06:56:13;99755.06;;;18.56;100.00
47738;BME280;33502;47.182;27.506;2023-07-31T06:58:39;99763.34;;;18.53;100.00
47738;BME280;33502;47.182;27.506;2023-07-31T07:01:04;99761.53;;;18.53;100.00
47738;BME280;33502;47.182;27.506;2023-07-31T07:03:30;99765.31;;;18.51;100.00
47738;BME280;33502;47.182;27.506;2023-07-31T07:05:56;99755.41;;;18.51;100.00
47738;BME280;33502;47.182;27.506;2023-07-31T07:08:21;99755.41;;;18.51;100.00
47738;BME280;33502;47.182;27.506;2023-07-31T07:10:47;99749.88;;;18.43;100.00
47738;BME280;33502;47.182;27.506;2023-07-31T07:13:13;99756.47;;;18.39;100.00
47738;BME280;33502;47.182;27.506;2023-07-31T07:15:39;99752.34;;;18.35;100.00
47738;BME280;33502;47.182;27.506;2023-07-31T07:18:04;99760.66;;;18.32;100.00
47738;BME280;33502;47.182;27.506;2023-07-31T07:20:30;99753.72;;;18.29;100.00
47738;BME280;33502;47.182;27.506;2023-07-31T07:22:56;99761.16;;;18.26;100.00
47738;BME280;33502;47.182;27.506;2023-07-31T07:25:21;99761.81;;;18.18;100.00
47738;BME280;33502;47.182;27.506;2023-07-31T07:27:47;99761.69;;;18.19;100.00
47738;BME280;33502;47.182;27.506;2023-07-31T07:30:12;99763.13;;;18.24;100.00
47738;BME280;33502;47.182;27.506;2023-07-31T07:32:39;99769.41;;;18.34;100.00
47738;BME280;33502;47.182;27.506;2023-07-31T07:35:05;99770.81;;;18.17;100.00
47738;BME280;33502;47.182;27.506;2023-07-31T07:37:31;99775.38;;;18.05;100.00
47738;BME280;33502;47.182;27.506;2023-07-31T07:39:57;99779.16;;;18.03;100.00
47738;BME280;33502;47.182;27.506;2023-07-31T07:42:22;99778.22;;;17.92;100.00
47738;BME280;33502;47.182;27.506;2023-07-31T07:44:48;99778.81;;;17.96;100.00
47738;BME280;33502;47.182;27.506;2023-07-31T07:47:13;99782.94;;;18.00;100.00
47738;BME280;33502;47.182;27.506;2023-07-31T07:49:39;99778.31;;;18.02;100.00
47738;BME280;33502;47.182;27.506;2023-07-31T07:52:05;99779.66;;;18.08;100.00
47738;BME280;33502;47.182;27.506;2023-07-31T07:54:31;99784.41;;;18.04;100.00
47738;BME280;33502;47.182;27.506;2023-07-31T07:56:56;99789.56;;;18.17;100.00
47738;BME280;33502;47.182;27.506;2023-07-31T07:59:22;99789.81;;;18.25;100.00
47738;BME280;33502;47.182;27.506;2023-07-31T08:01:47;99791.88;;;18.22;100.00
47738;BME280;33502;47.182;27.506;2023-07-31T08:04:13;99787.84;;;18.27;100.00
47738;BME280;33502;47.182;27.506;2023-07-31T08:06:38;99795.13;;;18.36;100.00
47738;BME280;33502;47.182;27.506;2023-07-31T08:09:05;99792.50;;;18.46;100.00
47738;BME280;33502;47.182;27.506;2023-07-31T08:11:34;99790.91;;;18.44;100.00
47738;BME280;33502;47.182;27.506;2023-07-31T08:14:00;99794.47;;;18.44;100.00
47738;BME280;33502;47.182;27.506;2023-07-31T08:16:26;99791.31;;;18.39;100.00
47738;BME280;33502;47.182;27.506;2023-07-31T08:18:52;99791.44;;;18.37;100.00
47738;BME280;33502;47.182;27.506;2023-07-31T08:21:17;99791.72;;;18.34;100.00
47738;BME280;33502;47.182;27.506;2023-07-31T08:23:43;99790.25;;;18.30;100.00
47738;BME280;33502;47.182;27.506;2023-07-31T08:26:14;99785.47;;;18.34;100.00
47738;BME280;33502;47.182;27.506;2023-07-31T08:28:40;99785.97;;;18.39;100.00
47738;BME280;33502;47.182;27.506;2023-07-31T08:31:05;99797.16;;;18.44;100.00
47738;BME280;33502;47.182;27.506;2023-07-31T08:33:31;99791.28;;;18.50;100.00
47738;BME280;33502;47.182;27.506;2023-07-31T08:35:57;99800.50;;;18.57;100.00
47738;BME280;33502;47.182;27.506;2023-07-31T08:38:22;99797.88;;;18.46;100.00
47738;BME280;33502;47.182;27.506;2023-07-31T08:40:50;99804.81;;;18.49;100.00
47738;BME280;33502;47.182;27.506;2023-07-31T08:43:16;99802.00;;;18.50;100.00
47738;BME280;33502;47.182;27.506;2023-07-31T08:45:42;99799.19;;;18.52;100.00
47738;BME280;33502;47.182;27.506;2023-07-31T08:48:08;99801.59;;;18.55;100.00
47738;BME280;33502;47.182;27.506;2023-07-31T08:50:34;99805.53;;;18.72;100.00
47738;BME280;33502;47.182;27.506;2023-07-31T08:52:59;99806.13;;;18.75;100.00
47738;BME280;33502;47.182;27.506;2023-07-31T08:55:25;99812.50;;;18.74;100.00
47738;BME280;33502;47.182;27.506;2023-07-31T08:57:52;99808.69;;;18.77;100.00
47738;BME280;33502;47.182;27.506;2023-07-31T09:00:18;99808.06;;;18.85;100.00
47738;BME280;33502;47.182;27.506;2023-07-31T09:02:48;99810.75;;;18.85;100.00
47738;BME280;33502;47.182;27.506;2023-07-31T09:05:16;99815.38;;;18.83;100.00
47738;BME280;33502;47.182;27.506;2023-07-31T09:07:43;99813.16;;;18.88;100.00
47738;BME280;33502;47.182;27.506;2023-07-31T09:10:11;99804.78;;;19.02;100.00
47738;BME280;33502;47.182;27.506;2023-07-31T09:12:37;99804.09;;;19.10;100.00
47738;BME280;33502;47.182;27.506;2023-07-31T09:15:04;99808.56;;;19.21;100.00
47738;BME280;33502;47.182;27.506;2023-07-31T09:17:34;99809.31;;;19.32;100.00
47738;BME280;33502;47.182;27.506;2023-07-31T09:22:42;99799.78;;;19.49;100.00
47738;BME280;33502;47.182;27.506;2023-07-31T09:25:19;99809.25;;;19.53;100.00
47738;BME280;33502;47.182;27.506;2023-07-31T09:27:49;99795.13;;;19.51;100.00
47738;BME280;33502;47.182;27.506;2023-07-31T09:30:16;99795.00;;;19.63;100.00
47738;BME280;33502;47.182;27.506;2023-07-31T09:32:43;99795.22;;;19.81;100.00
47738;BME280;33502;47.182;27.506;2023-07-31T09:35:18;99788.88;;;19.82;100.00
47738;BME280;33502;47.182;27.506;2023-07-31T09:37:49;99781.69;;;19.92;100.00
47738;BME280;33502;47.182;27.506;2023-07-31T09:40:24;99788.06;;;20.01;100.00
47738;BME280;33502;47.182;27.506;2023-07-31T09:42:50;99791.16;;;20.06;100.00
47738;BME280;33502;47.182;27.506;2023-07-31T09:45:16;99791.16;;;20.15;100.00
47738;BME280;33502;47.182;27.506;2023-07-31T09:47:47;99796.84;;;20.32;100.00
47738;BME280;33502;47.182;27.506;2023-07-31T09:50:14;99790.06;;;20.38;100.00
47738;BME280;33502;47.182;27.506;2023-07-31T09:52:40;99784.53;;;20.59;100.00
47738;BME280;33502;47.182;27.506;2023-07-31T09:55:05;99785.94;;;20.82;100.00
47738;BME280;33502;47.182;27.506;2023-07-31T09:57:31;99789.31;;;20.84;100.00
47738;BME280;33502;47.182;27.506;2023-07-31T09:59:58;99775.13;;;20.92;100.00
47738;BME280;33502;47.182;27.506;2023-07-31T10:02:24;99778.13;;;20.99;100.00
47738;BME280;33502;47.182;27.506;2023-07-31T10:04:51;99772.97;;;21.05;100.00
47738;BME280;33502;47.182;27.506;2023-07-31T10:07:17;99779.06;;;21.17;100.00
47738;BME280;33502;47.182;27.506;2023-07-31T10:09:43;99781.41;;;21.30;100.00
47738;BME280;33502;47.182;27.506;2023-07-31T10:12:09;99778.25;;;21.44;100.00
47738;BME280;33502;47.182;27.506;2023-07-31T10:14:36;99780.50;;;21.49;100.00
47738;BME280;33502;47.182;27.506;2023-07-31T10:17:04;99779.53;;;21.68;100.00
47738;BME280;33502;47.182;27.506;2023-07-31T10:19:30;99769.81;;;21.85;100.00
47738;BME280;33502;47.182;27.506;2023-07-31T10:21:56;99774.56;;;21.91;100.00
47738;BME280;33502;47.182;27.506;2023-07-31T10:24:24;99775.28;;;21.93;100.00
47738;BME280;33502;47.182;27.506;2023-07-31T10:26:50;99779.69;;;22.12;100.00
47738;BME280;33502;47.182;27.506;2023-07-31T10:29:17;99780.22;;;21.98;100.00
47738;BME280;33502;47.182;27.506;2023-07-31T10:31:44;99791.47;;;22.11;100.00
47738;BME280;33502;47.182;27.506;2023-07-31T10:34:09;99786.31;;;22.18;100.00
47738;BME280;33502;47.182;27.506;2023-07-31T10:36:35;99780.91;;;22.18;100.00
47738;BME280;33502;47.182;27.506;2023-07-31T10:39:02;99783.53;;;22.09;100.00
47738;BME280;33502;47.182;27.506;2023-07-31T10:41:29;99775.84;;;22.15;100.00
47738;BME280;33502;47.182;27.506;2023-07-31T10:44:02;99777.53;;;22.16;100.00
47738;BME280;33502;47.182;27.506;2023-07-31T10:46:28;99777.59;;;22.24;100.00
47738;BME280;33502;47.182;27.506;2023-07-31T10:48:57;99768.06;;;22.29;100.00
47738;BME280;33502;47.182;27.506;2023-07-31T10:51:23;99768.31;;;22.36;100.00
47738;BME280;33502;47.182;27.506;2023-07-31T10:53:49;99768.44;;;22.53;100.00
47738;BME280;33502;47.182;27.506;2023-07-31T10:56:37;99758.28;;;22.46;100.00
47738;BME280;33502;47.182;27.506;2023-07-31T10:59:02;99765.22;;;22.49;100.00
47738;BME280;33502;47.182;27.506;2023-07-31T11:01:50;99762.34;;;22.51;100.00
47738;BME280;33502;47.182;27.506;2023-07-31T11:04:21;99766.31;;;22.38;100.00
47738;BME280;33502;47.182;27.506;2023-07-31T11:06:55;99763.38;;;22.32;100.00
47738;BME280;33502;47.182;27.506;2023-07-31T11:09:20;99761.47;;;22.42;100.00
47738;BME280;33502;47.182;27.506;2023-07-31T11:11:46;99765.22;;;22.49;100.00
47738;BME280;33502;47.182;27.506;2023-07-31T11:14:11;99754.91;;;22.44;100.00
47738;BME280;33502;47.182;27.506;2023-07-31T11:16:37;99761.31;;;22.43;100.00
47738;BME280;33502;47.182;27.506;2023-07-31T11:19:03;99745.97;;;22.44;100.00
47738;BME280;33502;47.182;27.506;2023-07-31T11:21:33;99754.34;;;22.41;100.00
47738;BME280;33502;47.182;27.506;2023-07-31T11:23:59;99748.50;;;22.45;100.00
47738;BME280;33502;47.182;27.506;2023-07-31T11:26:25;99750.53;;;22.43;100.00
47738;BME280;33502;47.182;27.506;2023-07-31T11:28:50;99745.03;;;22.53;100.00
47738;BME280;33502;47.182;27.506;2023-07-31T11:31:17;99747.34;;;22.48;100.00
47738;BME280;33502;47.182;27.506;2023-07-31T11:33:42;99742.88;;;22.39;100.00
47738;BME280;33502;47.182;27.506;2023-07-31T11:36:26;99741.00;;;22.39;100.00
47738;BME280;33502;47.182;27.506;2023-07-31T11:38:52;99740.47;;;22.54;100.00
47738;BME280;33502;47.182;27.506;2023-07-31T11:41:17;99742.53;;;22.60;100.00
47738;BME280;33502;47.182;27.506;2023-07-31T11:43:43;99733.19;;;22.72;100.00
47738;BME280;33502;47.182;27.506;2023-07-31T11:46:09;99743.34;;;22.78;100.00
47738;BME280;33502;47.182;27.506;2023-07-31T11:48:35;99734.31;;;22.87;100.00
47738;BME280;33502;47.182;27.506;2023-07-31T11:51:02;99739.25;;;23.00;100.00
47738;BME280;33502;47.182;27.506;2023-07-31T11:53:29;99721.44;;;23.08;100.00
47738;BME280;33502;47.182;27.506;2023-07-31T11:55:57;99724.75;;;23.01;100.00
47738;BME280;33502;47.182;27.506;2023-07-31T11:58:23;99719.91;;;23.05;100.00
47738;BME280;33502;47.182;27.506;2023-07-31T12:00:49;99714.88;;;23.10;100.00
47738;BME280;33502;47.182;27.506;2023-07-31T12:03:15;99715.56;;;23.12;100.00
47738;BME280;33502;47.182;27.506;2023-07-31T12:05:41;99717.59;;;23.10;100.00
47738;BME280;33502;47.182;27.506;2023-07-31T12:08:10;99718.50;;;23.01;100.00
47738;BME280;33502;47.182;27.506;2023-07-31T12:10:37;99718.94;;;22.88;100.00
47738;BME280;33502;47.182;27.506;2023-07-31T12:13:10;99715.66;;;23.02;100.00
47738;BME280;33502;47.182;27.506;2023-07-31T12:15:42;99713.34;;;23.08;100.00
47738;BME280;33502;47.182;27.506;2023-07-31T12:20:46;99706.78;;;23.10;100.00
47738;BME280;33502;47.182;27.506;2023-07-31T12:23:19;99709.16;;;23.13;100.00
47738;BME280;33502;47.182;27.506;2023-07-31T12:25:59;99712.91;;;23.20;100.00
47738;BME280;33502;47.182;27.506;2023-07-31T12:28:25;99706.59;;;23.12;100.00
47738;BME280;33502;47.182;27.506;2023-07-31T12:30:51;99710.66;;;23.16;100.00
47738;BME280;33502;47.182;27.506;2023-07-31T12:33:16;99709.31;;;23.12;100.00
47738;BME280;33502;47.182;27.506;2023-07-31T12:35:44;99703.75;;;23.13;100.00
47738;BME280;33502;47.182;27.506;2023-07-31T12:38:11;99698.41;;;23.30;100.00
47738;BME280;33502;47.182;27.506;2023-07-31T12:40:40;99704.06;;;23.44;100.00
47738;BME280;33502;47.182;27.506;2023-07-31T12:43:06;99696.41;;;23.40;100.00
47738;BME280;33502;47.182;27.506;2023-07-31T12:45:33;99699.94;;;23.91;100.00
47738;BME280;33502;47.182;27.506;2023-07-31T12:47:58;99703.38;;;24.34;100.00
47738;BME280;33502;47.182;27.506;2023-07-31T12:50:24;99700.75;;;24.90;100.00
47738;BME280;33502;47.182;27.506;2023-07-31T12:52:51;99698.47;;;25.18;100.00